createdAt,value
2023-03-23T15:57:56.846Z,47.87
2023-03-23T16:00:29.138Z,47.86
2023-03-23T16:03:01.017Z,48.09
2023-03-23T16:05:30.124Z,48.37
2023-03-23T16:07:59.240Z,47.99
2023-03-23T16:10:29.006Z,48.87
2023-03-23T16:12:59.657Z,49.16
2023-03-23T16:15:28.184Z,48.91
2023-03-23T16:17:56.683Z,48.87
2023-03-23T16:20:26.821Z,49.70
2023-03-23T16:22:55.451Z,49.94
2023-03-23T16:25:24.632Z,49.57
2023-03-23T16:27:54.596Z,49.79
2023-03-23T16:30:30.591Z,50.13
2023-03-23T16:32:59.008Z,50.58
2023-03-23T16:35:27.856Z,51.01
2023-03-23T16:38:08.557Z,50.61
2023-03-23T16:40:38.572Z,50.48
2023-03-23T16:43:09.623Z,50.81
2023-03-23T16:45:43.721Z,51.98
2023-03-23T16:48:14.912Z,51.87
2023-03-23T16:50:44.322Z,52.75
2023-03-23T16:53:14.133Z,53.78
2023-03-23T16:55:44.457Z,53.86
2023-03-23T16:58:16.866Z,54.36
2023-03-23T17:00:50.183Z,55.32
2023-03-23T17:03:19.327Z,55.16
2023-03-23T17:05:49.322Z,55.65
2023-03-23T17:08:20.901Z,55.50
2023-03-23T17:10:49.797Z,56.20
2023-03-23T17:13:18.924Z,56.58
2023-03-23T17:15:48.704Z,56.86
2023-03-23T17:18:17.514Z,57.45
2023-03-23T17:20:48.754Z,57.55
2023-03-23T17:23:17.871Z,57.74
2023-03-23T17:25:47.873Z,57.88
2023-03-23T17:28:18.120Z,57.72
2023-03-23T17:30:52.331Z,57.80
2023-03-23T17:33:22.857Z,58.02
2023-03-23T17:35:55.014Z,58.40
2023-03-23T17:38:24.627Z,59.28
2023-03-23T17:40:59.095Z,59.72
2023-03-23T17:43:30.642Z,59.94
2023-03-23T17:46:00.412Z,60.79
2023-03-23T17:48:30.190Z,61.45
2023-03-23T17:51:05.846Z,62.72
2023-03-23T17:53:36.662Z,62.01
2023-03-23T17:56:08.870Z,62.29
2023-03-23T17:58:37.757Z,61.82
2023-03-23T18:01:08.084Z,61.71
2023-03-23T18:03:38.720Z,61.32
2023-03-23T18:06:09.374Z,61.81
2023-03-23T18:08:38.758Z,64.96
2023-03-23T18:11:09.241Z,65.02
2023-03-23T18:13:39.441Z,64.87
2023-03-23T18:16:14.382Z,64.62
2023-03-23T18:18:44.885Z,64.40
2023-03-23T18:21:15.243Z,64.78
2023-03-23T18:23:53.186Z,64.59
2023-03-23T18:26:25.882Z,64.86
2023-03-23T18:28:54.217Z,64.84
2023-03-23T18:31:23.868Z,64.54
2023-03-23T18:33:55.011Z,64.99
2023-03-23T18:36:25.662Z,64.87
2023-03-23T18:38:56.696Z,65.31
2023-03-23T18:41:25.521Z,65.98
2023-03-23T18:43:57.883Z,66.44
2023-03-23T18:46:27.891Z,66.02
2023-03-23T18:48:56.207Z,66.35
2023-03-23T18:51:26.139Z,66.36
2023-03-23T18:53:54.891Z,68.05
2023-03-23T18:56:23.518Z,68.77
2023-03-23T18:58:53.232Z,69.62
2023-03-23T19:01:22.006Z,69.37
2023-03-23T19:03:51.941Z,68.76
2023-03-23T19:06:25.684Z,68.73
2023-03-23T19:08:56.772Z,69.38
2023-03-23T19:11:27.612Z,69.48
2023-03-23T19:14:02.818Z,70.12
2023-03-23T19:16:36.068Z,70.49
2023-03-23T19:19:09.025Z,71.11
2023-03-23T19:21:43.819Z,71.29
2023-03-23T19:24:14.892Z,71.48
2023-03-23T19:26:46.720Z,70.82
2023-03-23T19:29:26.599Z,70.74
2023-03-23T19:31:57.057Z,70.85
2023-03-23T19:34:30.106Z,70.59
2023-03-23T19:37:05.904Z,71.28
2023-03-23T19:39:36.777Z,71.73
2023-03-23T19:42:05.869Z,71.24
2023-03-23T19:44:34.929Z,71.20
2023-03-23T19:47:04.040Z,71.24
2023-03-23T19:49:33.794Z,71.05
2023-03-23T19:52:07.772Z,71.28
2023-03-23T19:54:41.631Z,71.31
2023-03-23T19:57:12.608Z,71.74
2023-03-23T19:59:41.012Z,72.51
2023-03-23T20:02:12.617Z,72.90
2023-03-23T20:04:43.417Z,72.81
2023-03-23T20:07:12.608Z,72.89
2023-03-23T20:09:46.352Z,72.88
2023-03-23T20:12:16.136Z,72.92
2023-03-23T20:14:45.362Z,73.45
2023-03-23T20:17:14.736Z,73.24
2023-03-23T20:19:44.998Z,73.00
2023-03-23T20:22:15.869Z,73.58
2023-03-23T20:24:47.021Z,73.52
2023-03-23T20:27:18.592Z,74.00
2023-03-23T20:29:47.124Z,74.18
2023-03-23T20:32:15.884Z,74.53
2023-03-23T20:34:49.406Z,74.80
2023-03-23T20:37:20.445Z,74.92
2023-03-23T20:39:49.516Z,75.22
2023-03-23T20:42:19.851Z,75.49
2023-03-23T20:44:48.601Z,75.48
2023-03-23T20:47:16.974Z,74.96
2023-03-23T20:49:52.807Z,74.40
2023-03-23T20:52:22.992Z,74.46
2023-03-23T20:54:52.460Z,74.04
2023-03-23T20:57:22.721Z,74.15
2023-03-23T20:59:51.697Z,74.22
2023-03-23T21:02:21.608Z,73.96
2023-03-23T21:04:52.722Z,74.17
2023-03-23T21:07:27.585Z,74.62
2023-03-23T21:09:57.058Z,74.66
2023-03-23T21:12:28.006Z,74.74
2023-03-23T21:14:56.518Z,74.82
2023-03-23T21:17:24.733Z,75.36
2023-03-23T21:19:55.672Z,75.58
2023-03-23T21:22:24.214Z,76.19
2023-03-23T21:24:53.990Z,76.44
2023-03-23T21:27:22.486Z,77.35
2023-03-23T21:29:51.394Z,77.69
2023-03-23T21:32:19.747Z,77.71
2023-03-23T21:34:48.381Z,77.45
2023-03-23T21:37:19.249Z,77.12
2023-03-23T21:39:47.825Z,77.50
2023-03-23T21:42:16.686Z,78.30
2023-03-23T21:44:45.800Z,78.64
2023-03-23T21:47:14.292Z,78.30
2023-03-23T21:49:46.237Z,78.11
2023-03-23T21:52:17.868Z,77.84
2023-03-23T21:54:48.884Z,77.58
2023-03-23T21:57:19.427Z,77.82
2023-03-23T21:59:47.787Z,78.22
2023-03-23T22:02:16.942Z,78.43
2023-03-23T22:04:45.909Z,79.04
2023-03-23T22:07:16.037Z,79.56
2023-03-23T22:09:46.117Z,78.97
2023-03-23T22:12:18.801Z,79.42
2023-03-23T22:14:49.244Z,79.25
2023-03-23T22:17:19.090Z,79.20
2023-03-23T22:19:50.780Z,79.72
2023-03-23T22:22:19.643Z,80.08
2023-03-23T22:24:49.790Z,80.04
2023-03-23T22:27:23.010Z,80.63
2023-03-23T22:29:53.343Z,80.02
2023-03-23T22:32:21.845Z,80.77
2023-03-23T22:34:53.991Z,81.14
2023-03-23T22:37:22.440Z,80.62
2023-03-23T22:39:54.031Z,80.28
2023-03-23T22:42:24.542Z,79.95
2023-03-23T22:44:53.011Z,80.25
2023-03-23T22:47:21.540Z,80.96
2023-03-23T22:49:50.621Z,81.13
2023-03-23T22:52:20.422Z,82.21
2023-03-23T22:54:54.839Z,82.00
2023-03-23T22:57:28.990Z,82.58
2023-03-23T22:59:57.465Z,82.63
2023-03-23T23:02:26.562Z,83.03
2023-03-23T23:04:55.666Z,83.45
2023-03-23T23:07:25.856Z,83.01
2023-03-23T23:09:56.038Z,83.64
2023-03-23T23:12:25.989Z,84.03
2023-03-23T23:14:54.939Z,83.98
2023-03-23T23:17:24.099Z,83.71
2023-03-23T23:19:53.648Z,83.48
2023-03-23T23:22:22.182Z,83.54
2023-03-23T23:24:52.255Z,83.94
2023-03-23T23:27:24.902Z,84.39
2023-03-23T23:29:54.898Z,84.81
2023-03-23T23:32:23.331Z,84.89
2023-03-23T23:34:54.408Z,84.69
2023-03-23T23:37:25.094Z,84.76
2023-03-23T23:39:54.166Z,84.78
2023-03-23T23:42:23.332Z,84.98
2023-03-23T23:44:51.960Z,85.18
2023-03-23T23:47:21.875Z,85.27
2023-03-23T23:49:50.392Z,85.23
2023-03-23T23:52:21.260Z,84.79
2023-03-23T23:54:55.129Z,84.18
2023-03-23T23:57:28.337Z,84.10
